sensor_id;sensor_type;location;lat;lon;timestamp;temperature;humidity
14786;DHT22;7484;49.906;9.058;2023-04-12T00:00:53;7.90;99.90
14786;DHT22;7484;49.906;9.058;2023-04-12T00:03:20;7.90;99.90
14786;DHT22;7484;49.906;9.058;2023-04-12T00:05:48;7.90;99.90
14786;DHT22;7484;49.906;9.058;2023-04-12T00:08:19;8.00;99.90
14786;DHT22;7484;49.906;9.058;2023-04-12T00:10:49;8.00;99.90
14786;DHT22;7484;49.906;9.058;2023-04-12T00:13:16;8.00;99.90
14786;DHT22;7484;49.906;9.058;2023-04-12T00:15:43;8.10;99.90
14786;DHT22;7484;49.906;9.058;2023-04-12T00:18:10;8.20;99.90
14786;DHT22;7484;49.906;9.058;2023-04-12T00:20:36;8.40;99.90
14786;DHT22;7484;49.906;9.058;2023-04-12T00:23:04;8.50;99.90
14786;DHT22;7484;49.906;9.058;2023-04-12T00:25:31;8.50;99.90
14786;DHT22;7484;49.906;9.058;2023-04-12T00:27:58;8.50;99.90
14786;DHT22;7484;49.906;9.058;2023-04-12T00:30:25;8.60;99.90
14786;DHT22;7484;49.906;9.058;2023-04-12T00:32:52;8.70;99.90
14786;DHT22;7484;49.906;9.058;2023-04-12T00:35:19;8.70;99.90
14786;DHT22;7484;49.906;9.058;2023-04-12T00:37:46;8.60;99.90
14786;DHT22;7484;49.906;9.058;2023-04-12T00:40:14;8.50;99.90
14786;DHT22;7484;49.906;9.058;2023-04-12T00:42:40;8.30;99.90
14786;DHT22;7484;49.906;9.058;2023-04-12T00:45:08;8.30;99.90
14786;DHT22;7484;49.906;9.058;2023-04-12T00:47:35;8.40;99.90
14786;DHT22;7484;49.906;9.058;2023-04-12T00:50:03;8.40;99.90
14786;DHT22;7484;49.906;9.058;2023-04-12T00:52:31;8.40;99.90
14786;DHT22;7484;49.906;9.058;2023-04-12T00:55:00;8.30;99.90
14786;DHT22;7484;49.906;9.058;2023-04-12T00:57:33;8.20;99.90
14786;DHT22;7484;49.906;9.058;2023-04-12T01:00:01;8.00;99.90
14786;DHT22;7484;49.906;9.058;2023-04-12T01:02:29;8.00;99.90
14786;DHT22;7484;49.906;9.058;2023-04-12T01:04:56;8.00;99.90
14786;DHT22;7484;49.906;9.058;2023-04-12T01:07:30;8.00;99.90
14786;DHT22;7484;49.906;9.058;2023-04-12T01:10:08;8.00;99.90
14786;DHT22;7484;49.906;9.058;2023-04-12T01:12:44;8.00;99.90
14786;DHT22;7484;49.906;9.058;2023-04-12T01:15:15;8.10;99.90
14786;DHT22;7484;49.906;9.058;2023-04-12T01:17:46;8.10;99.90
14786;DHT22;7484;49.906;9.058;2023-04-12T01:20:16;8.10;99.90
14786;DHT22;7484;49.906;9.058;2023-04-12T01:23:10;8.30;99.90
14786;DHT22;7484;49.906;9.058;2023-04-12T01:25:53;8.40;99.90
14786;DHT22;7484;49.906;9.058;2023-04-12T01:28:31;8.40;99.90
14786;DHT22;7484;49.906;9.058;2023-04-12T01:31:00;8.40;99.90
14786;DHT22;7484;49.906;9.058;2023-04-12T01:33:28;8.40;99.90
14786;DHT22;7484;49.906;9.058;2023-04-12T01:35:57;8.50;99.90
14786;DHT22;7484;49.906;9.058;2023-04-12T01:38:25;8.50;99.90
14786;DHT22;7484;49.906;9.058;2023-04-12T01:40:53;8.50;99.90
14786;DHT22;7484;49.906;9.058;2023-04-12T01:43:20;8.50;99.90
14786;DHT22;7484;49.906;9.058;2023-04-12T01:45:48;8.40;99.90
14786;DHT22;7484;49.906;9.058;2023-04-12T01:48:15;8.30;99.90
14786;DHT22;7484;49.906;9.058;2023-04-12T01:50:47;8.30;99.90
14786;DHT22;7484;49.906;9.058;2023-04-12T01:53:18;8.30;99.90
14786;DHT22;7484;49.906;9.058;2023-04-12T01:55:47;8.30;99.90
14786;DHT22;7484;49.906;9.058;2023-04-12T01:58:18;8.30;99.90
14786;DHT22;7484;49.906;9.058;2023-04-12T02:00:45;8.30;99.90
14786;DHT22;7484;49.906;9.058;2023-04-12T02:03:14;8.30;99.90
14786;DHT22;7484;49.906;9.058;2023-04-12T02:05:42;8.30;99.90
14786;DHT22;7484;49.906;9.058;2023-04-12T02:08:10;8.30;99.90
14786;DHT22;7484;49.906;9.058;2023-04-12T02:10:37;8.30;99.90
14786;DHT22;7484;49.906;9.058;2023-04-12T02:13:05;8.30;99.90
14786;DHT22;7484;49.906;9.058;2023-04-12T02:15:32;8.40;99.90
14786;DHT22;7484;49.906;9.058;2023-04-12T02:17:59;8.50;99.90
14786;DHT22;7484;49.906;9.058;2023-04-12T02:20:28;8.60;99.90
14786;DHT22;7484;49.906;9.058;2023-04-12T02:22:55;8.60;99.90
14786;DHT22;7484;49.906;9.058;2023-04-12T02:25:22;8.60;99.90
14786;DHT22;7484;49.906;9.058;2023-04-12T02:27:49;8.60;99.90
14786;DHT22;7484;49.906;9.058;2023-04-12T02:30:15;8.60;99.90
14786;DHT22;7484;49.906;9.058;2023-04-12T02:32:46;8.50;99.90
14786;DHT22;7484;49.906;9.058;2023-04-12T02:35:22;8.50;99.90
14786;DHT22;7484;49.906;9.058;2023-04-12T02:37:55;8.50;99.90
14786;DHT22;7484;49.906;9.058;2023-04-12T02:40:26;8.50;99.90
14786;DHT22;7484;49.906;9.058;2023-04-12T02:42:54;8.50;99.90
14786;DHT22;7484;49.906;9.058;2023-04-12T02:45:23;8.40;99.90
14786;DHT22;7484;49.906;9.058;2023-04-12T02:47:51;8.40;99.90
14786;DHT22;7484;49.906;9.058;2023-04-12T02:50:22;8.40;99.90
14786;DHT22;7484;49.906;9.058;2023-04-12T02:52:58;8.50;99.90
14786;DHT22;7484;49.906;9.058;2023-04-12T02:55:24;8.40;99.90
14786;DHT22;7484;49.906;9.058;2023-04-12T02:57:52;8.40;99.90
14786;DHT22;7484;49.906;9.058;2023-04-12T03:00:19;8.40;99.90
14786;DHT22;7484;49.906;9.058;2023-04-12T03:02:49;8.40;99.90
14786;DHT22;7484;49.906;9.058;2023-04-12T03:05:23;8.40;99.90
14786;DHT22;7484;49.906;9.058;2023-04-12T03:07:51;8.40;99.90
14786;DHT22;7484;49.906;9.058;2023-04-12T03:10:39;8.30;99.90
14786;DHT22;7484;49.906;9.058;2023-04-12T03:13:05;8.30;99.90
14786;DHT22;7484;49.906;9.058;2023-04-12T03:15:35;8.30;99.90
14786;DHT22;7484;49.906;9.058;2023-04-12T03:18:03;8.30;99.90
14786;DHT22;7484;49.906;9.058;2023-04-12T03:20:36;8.20;99.90
14786;DHT22;7484;49.906;9.058;2023-04-12T03:23:08;8.20;99.90
14786;DHT22;7484;49.906;9.058;2023-04-12T03:25:39;8.10;99.90
14786;DHT22;7484;49.906;9.058;2023-04-12T03:28:25;8.10;99.90
14786;DHT22;7484;49.906;9.058;2023-04-12T03:30:52;8.10;99.90
14786;DHT22;7484;49.906;9.058;2023-04-12T03:33:23;8.10;99.90
14786;DHT22;7484;49.906;9.058;2023-04-12T03:35:54;8.00;99.90
14786;DHT22;7484;49.906;9.058;2023-04-12T03:38:21;8.00;99.90
14786;DHT22;7484;49.906;9.058;2023-04-12T03:40:49;7.90;99.90
14786;DHT22;7484;49.906;9.058;2023-04-12T03:43:21;7.90;99.90
14786;DHT22;7484;49.906;9.058;2023-04-12T03:45:48;7.90;99.90
14786;DHT22;7484;49.906;9.058;2023-04-12T03:48:15;8.00;99.90
14786;DHT22;7484;49.906;9.058;2023-04-12T03:50:42;7.90;99.90
14786;DHT22;7484;49.906;9.058;2023-04-12T03:53:13;7.90;99.90
14786;DHT22;7484;49.906;9.058;2023-04-12T03:55:43;7.90;99.90
14786;DHT22;7484;49.906;9.058;2023-04-12T03:58:11;8.00;99.90
14786;DHT22;7484;49.906;9.058;2023-04-12T04:00:42;8.00;99.90
14786;DHT22;7484;49.906;9.058;2023-04-12T04:03:09;8.10;99.90
14786;DHT22;7484;49.906;9.058;2023-04-12T04:05:43;8.10;99.90
14786;DHT22;7484;49.906;9.058;2023-04-12T04:08:12;8.10;99.90
14786;DHT22;7484;49.906;9.058;2023-04-12T04:10:50;8.20;99.90
14786;DHT22;7484;49.906;9.058;2023-04-12T04:13:20;8.20;99.90
14786;DHT22;7484;49.906;9.058;2023-04-12T04:15:54;8.10;99.90
14786;DHT22;7484;49.906;9.058;2023-04-12T04:18:21;8.00;99.90
14786;DHT22;7484;49.906;9.058;2023-04-12T04:20:48;8.00;99.90
14786;DHT22;7484;49.906;9.058;2023-04-12T04:23:15;7.90;99.90
14786;DHT22;7484;49.906;9.058;2023-04-12T04:25:42;8.00;99.90
14786;DHT22;7484;49.906;9.058;2023-04-12T04:28:12;8.00;99.90
14786;DHT22;7484;49.906;9.058;2023-04-12T04:30:41;7.90;99.90
14786;DHT22;7484;49.906;9.058;2023-04-12T04:33:13;7.90;99.90
14786;DHT22;7484;49.906;9.058;2023-04-12T04:35:40;7.80;99.90
14786;DHT22;7484;49.906;9.058;2023-04-12T04:38:21;7.80;99.90
14786;DHT22;7484;49.906;9.058;2023-04-12T04:40:50;7.90;99.90
14786;DHT22;7484;49.906;9.058;2023-04-12T04:43:18;7.90;99.90
14786;DHT22;7484;49.906;9.058;2023-04-12T04:45:47;7.80;99.90
14786;DHT22;7484;49.906;9.058;2023-04-12T04:48:20;7.90;99.90
14786;DHT22;7484;49.906;9.058;2023-04-12T04:50:46;7.80;99.90
14786;DHT22;7484;49.906;9.058;2023-04-12T04:53:16;7.90;99.90
14786;DHT22;7484;49.906;9.058;2023-04-12T04:55:43;7.90;99.90
14786;DHT22;7484;49.906;9.058;2023-04-12T04:58:12;7.90;99.90
14786;DHT22;7484;49.906;9.058;2023-04-12T05:00:39;7.80;99.90
14786;DHT22;7484;49.906;9.058;2023-04-12T05:03:12;7.70;99.90
14786;DHT22;7484;49.906;9.058;2023-04-12T05:05:38;7.70;99.90
14786;DHT22;7484;49.906;9.058;2023-04-12T05:08:08;7.70;99.90
14786;DHT22;7484;49.906;9.058;2023-04-12T05:10:36;7.70;99.90
14786;DHT22;7484;49.906;9.058;2023-04-12T05:13:02;7.70;99.90
14786;DHT22;7484;49.906;9.058;2023-04-12T05:15:29;7.70;99.90
14786;DHT22;7484;49.906;9.058;2023-04-12T05:17:56;7.70;99.90
14786;DHT22;7484;49.906;9.058;2023-04-12T05:20:24;7.70;99.90
14786;DHT22;7484;49.906;9.058;2023-04-12T05:22:52;7.70;99.90
14786;DHT22;7484;49.906;9.058;2023-04-12T05:25:18;7.70;99.90
14786;DHT22;7484;49.906;9.058;2023-04-12T05:27:53;7.70;99.90
14786;DHT22;7484;49.906;9.058;2023-04-12T05:30:20;7.80;99.90
14786;DHT22;7484;49.906;9.058;2023-04-12T05:32:47;7.80;99.90
14786;DHT22;7484;49.906;9.058;2023-04-12T05:35:16;7.90;99.90
14786;DHT22;7484;49.906;9.058;2023-04-12T05:37:45;7.80;99.90
14786;DHT22;7484;49.906;9.058;2023-04-12T05:40:12;7.80;99.90
14786;DHT22;7484;49.906;9.058;2023-04-12T05:42:40;7.70;99.90
14786;DHT22;7484;49.906;9.058;2023-04-12T05:45:07;7.70;99.90
14786;DHT22;7484;49.906;9.058;2023-04-12T05:47:35;7.70;99.90
14786;DHT22;7484;49.906;9.058;2023-04-12T05:50:02;7.70;99.90
14786;DHT22;7484;49.906;9.058;2023-04-12T05:52:30;7.60;99.90
14786;DHT22;7484;49.906;9.058;2023-04-12T05:54:58;7.70;99.90
14786;DHT22;7484;49.906;9.058;2023-04-12T05:57:25;7.70;99.90
14786;DHT22;7484;49.906;9.058;2023-04-12T05:59:52;7.70;99.90
14786;DHT22;7484;49.906;9.058;2023-04-12T06:02:19;7.70;99.90
14786;DHT22;7484;49.906;9.058;2023-04-12T06:04:46;7.70;99.90
14786;DHT22;7484;49.906;9.058;2023-04-12T06:07:13;7.70;99.90
14786;DHT22;7484;49.906;9.058;2023-04-12T06:09:42;7.70;99.90
14786;DHT22;7484;49.906;9.058;2023-04-12T06:12:11;7.70;99.90
14786;DHT22;7484;49.906;9.058;2023-04-12T06:14:38;7.70;99.90
14786;DHT22;7484;49.906;9.058;2023-04-12T06:17:06;7.80;99.90
14786;DHT22;7484;49.906;9.058;2023-04-12T06:19:33;7.80;99.90
14786;DHT22;7484;49.906;9.058;2023-04-12T06:22:00;7.80;99.90
14786;DHT22;7484;49.906;9.058;2023-04-12T06:24:27;7.90;99.90
14786;DHT22;7484;49.906;9.058;2023-04-12T06:26:54;7.90;99.90
14786;DHT22;7484;49.906;9.058;2023-04-12T06:29:22;7.90;99.90
14786;DHT22;7484;49.906;9.058;2023-04-12T06:31:49;7.90;99.90
14786;DHT22;7484;49.906;9.058;2023-04-12T06:34:16;7.80;99.90
14786;DHT22;7484;49.906;9.058;2023-04-12T06:36:44;7.90;99.90
14786;DHT22;7484;49.906;9.058;2023-04-12T06:39:12;7.80;99.90
14786;DHT22;7484;49.906;9.058;2023-04-12T06:41:40;7.80;99.90
14786;DHT22;7484;49.906;9.058;2023-04-12T06:44:08;7.90;99.90
14786;DHT22;7484;49.906;9.058;2023-04-12T06:46:36;8.00;99.90
14786;DHT22;7484;49.906;9.058;2023-04-12T06:49:02;7.90;99.90
14786;DHT22;7484;49.906;9.058;2023-04-12T06:51:29;7.90;99.90
14786;DHT22;7484;49.906;9.058;2023-04-12T06:53:56;7.90;99.90
14786;DHT22;7484;49.906;9.058;2023-04-12T06:56:23;7.90;99.90
14786;DHT22;7484;49.906;9.058;2023-04-12T06:58:49;7.90;99.90
14786;DHT22;7484;49.906;9.058;2023-04-12T07:01:16;7.90;99.90
14786;DHT22;7484;49.906;9.058;2023-04-12T07:03:44;7.90;99.90
14786;DHT22;7484;49.906;9.058;2023-04-12T07:06:11;7.90;99.90
14786;DHT22;7484;49.906;9.058;2023-04-12T07:08:37;7.80;99.90
14786;DHT22;7484;49.906;9.058;2023-04-12T07:11:05;7.90;99.90
14786;DHT22;7484;49.906;9.058;2023-04-12T07:13:31;7.90;99.90
14786;DHT22;7484;49.906;9.058;2023-04-12T07:15:58;7.90;99.90
14786;DHT22;7484;49.906;9.058;2023-04-12T07:18:25;7.90;99.90
14786;DHT22;7484;49.906;9.058;2023-04-12T07:20:54;7.90;99.90
14786;DHT22;7484;49.906;9.058;2023-04-12T07:23:22;7.90;99.90
14786;DHT22;7484;49.906;9.058;2023-04-12T07:25:49;7.90;99.90
14786;DHT22;7484;49.906;9.058;2023-04-12T07:28:17;7.90;99.90
14786;DHT22;7484;49.906;9.058;2023-04-12T07:30:44;7.90;99.90
14786;DHT22;7484;49.906;9.058;2023-04-12T07:33:10;7.90;99.90
14786;DHT22;7484;49.906;9.058;2023-04-12T07:35:37;7.90;99.90
14786;DHT22;7484;49.906;9.058;2023-04-12T07:38:05;7.90;99.90
14786;DHT22;7484;49.906;9.058;2023-04-12T07:40:32;8.00;99.90
14786;DHT22;7484;49.906;9.058;2023-04-12T07:42:59;8.00;99.90
14786;DHT22;7484;49.906;9.058;2023-04-12T07:45:25;8.00;99.90
14786;DHT22;7484;49.906;9.058;2023-04-12T07:47:52;8.00;99.90
14786;DHT22;7484;49.906;9.058;2023-04-12T07:50:19;8.10;99.90
14786;DHT22;7484;49.906;9.058;2023-04-12T07:52:45;8.10;99.90
14786;DHT22;7484;49.906;9.058;2023-04-12T07:55:13;8.20;99.90
14786;DHT22;7484;49.906;9.058;2023-04-12T07:57:40;8.20;99.90
14786;DHT22;7484;49.906;9.058;2023-04-12T08:00:08;8.30;99.90
14786;DHT22;7484;49.906;9.058;2023-04-12T08:02:41;8.30;99.90
14786;DHT22;7484;49.906;9.058;2023-04-12T08:05:08;8.30;99.90
14786;DHT22;7484;49.906;9.058;2023-04-12T08:07:35;8.30;99.90
14786;DHT22;7484;49.906;9.058;2023-04-12T08:10:02;8.40;99.90
14786;DHT22;7484;49.906;9.058;2023-04-12T08:12:30;8.50;99.90
14786;DHT22;7484;49.906;9.058;2023-04-12T08:14:56;8.50;99.90
14786;DHT22;7484;49.906;9.058;2023-04-12T08:17:24;8.50;99.90
14786;DHT22;7484;49.906;9.058;2023-04-12T08:19:53;8.60;99.90
14786;DHT22;7484;49.906;9.058;2023-04-12T08:22:19;8.60;99.90
14786;DHT22;7484;49.906;9.058;2023-04-12T08:24:46;8.70;99.90
14786;DHT22;7484;49.906;9.058;2023-04-12T08:27:13;8.70;99.90
14786;DHT22;7484;49.906;9.058;2023-04-12T08:29:42;8.70;99.90
14786;DHT22;7484;49.906;9.058;2023-04-12T08:32:09;8.70;99.90
14786;DHT22;7484;49.906;9.058;2023-04-12T08:34:37;8.70;99.90
14786;DHT22;7484;49.906;9.058;2023-04-12T08:37:03;8.70;99.90
14786;DHT22;7484;49.906;9.058;2023-04-12T08:39:30;8.60;99.90
14786;DHT22;7484;49.906;9.058;2023-04-12T08:41:57;8.60;99.90
14786;DHT22;7484;49.906;9.058;2023-04-12T08:44:33;8.60;99.90
14786;DHT22;7484;49.906;9.058;2023-04-12T08:47:03;8.60;99.90
14786;DHT22;7484;49.906;9.058;2023-04-12T08:49:30;8.60;99.90
14786;DHT22;7484;49.906;9.058;2023-04-12T08:51:59;8.60;99.90
14786;DHT22;7484;49.906;9.058;2023-04-12T08:54:26;8.60;99.90
14786;DHT22;7484;49.906;9.058;2023-04-12T08:56:55;8.70;99.90
14786;DHT22;7484;49.906;9.058;2023-04-12T08:59:23;8.70;99.90
14786;DHT22;7484;49.906;9.058;2023-04-12T09:01:51;8.70;99.90
14786;DHT22;7484;49.906;9.058;2023-04-12T09:04:19;8.70;99.90
14786;DHT22;7484;49.906;9.058;2023-04-12T09:06:46;8.90;99.90
14786;DHT22;7484;49.906;9.058;2023-04-12T09:09:13;8.90;99.90
14786;DHT22;7484;49.906;9.058;2023-04-12T09:11:40;8.90;99.90
14786;DHT22;7484;49.906;9.058;2023-04-12T09:14:20;9.00;99.90
14786;DHT22;7484;49.906;9.058;2023-04-12T09:16:47;9.10;99.90
14786;DHT22;7484;49.906;9.058;2023-04-12T09:19:14;9.10;99.90
14786;DHT22;7484;49.906;9.058;2023-04-12T09:21:53;9.20;99.90
14786;DHT22;7484;49.906;9.058;2023-04-12T09:24:19;9.20;99.90
14786;DHT22;7484;49.906;9.058;2023-04-12T09:26:48;9.20;99.90
14786;DHT22;7484;49.906;9.058;2023-04-12T09:29:21;9.40;99.90
14786;DHT22;7484;49.906;9.058;2023-04-12T09:31:55;9.40;99.90
14786;DHT22;7484;49.906;9.058;2023-04-12T09:34:22;9.50;99.90
14786;DHT22;7484;49.906;9.058;2023-04-12T09:36:48;9.50;99.90
14786;DHT22;7484;49.906;9.058;2023-04-12T09:39:16;9.50;99.90
14786;DHT22;7484;49.906;9.058;2023-04-12T09:41:43;9.60;99.90
14786;DHT22;7484;49.906;9.058;2023-04-12T09:44:27;9.60;99.90
14786;DHT22;7484;49.906;9.058;2023-04-12T09:46:54;9.70;99.90
14786;DHT22;7484;49.906;9.058;2023-04-12T09:49:36;9.60;99.90
14786;DHT22;7484;49.906;9.058;2023-04-12T09:52:04;9.70;99.90
14786;DHT22;7484;49.906;9.058;2023-04-12T09:54:36;9.70;99.90
14786;DHT22;7484;49.906;9.058;2023-04-12T09:57:05;9.70;99.90
14786;DHT22;7484;49.906;9.058;2023-04-12T09:59:35;9.80;99.90
14786;DHT22;7484;49.906;9.058;2023-04-12T10:02:04;9.90;99.90
14786;DHT22;7484;49.906;9.058;2023-04-12T10:04:34;10.00;99.90
14786;DHT22;7484;49.906;9.058;2023-04-12T10:07:01;10.00;99.90
14786;DHT22;7484;49.906;9.058;2023-04-12T10:09:29;10.00;99.90
14786;DHT22;7484;49.906;9.058;2023-04-12T10:11:57;10.00;99.90
14786;DHT22;7484;49.906;9.058;2023-04-12T10:14:26;10.00;99.90
14786;DHT22;7484;49.906;9.058;2023-04-12T10:16:56;10.00;99.90
14786;DHT22;7484;49.906;9.058;2023-04-12T10:19:24;10.00;99.90
14786;DHT22;7484;49.906;9.058;2023-04-12T10:21:52;10.10;99.90
14786;DHT22;7484;49.906;9.058;2023-04-12T10:24:20;10.20;99.90
14786;DHT22;7484;49.906;9.058;2023-04-12T10:26:47;10.20;99.90
14786;DHT22;7484;49.906;9.058;2023-04-12T10:29:29;10.20;99.90
14786;DHT22;7484;49.906;9.058;2023-04-12T10:32:17;10.10;99.90
14786;DHT22;7484;49.906;9.058;2023-04-12T10:34:49;10.20;99.90
14786;DHT22;7484;49.906;9.058;2023-04-12T10:37:17;10.20;99.90
14786;DHT22;7484;49.906;9.058;2023-04-12T10:39:45;10.20;99.90
14786;DHT22;7484;49.906;9.058;2023-04-12T10:42:22;10.20;99.90
14786;DHT22;7484;49.906;9.058;2023-04-12T10:44:51;10.30;99.90
14786;DHT22;7484;49.906;9.058;2023-04-12T10:47:55;10.20;99.90
14786;DHT22;7484;49.906;9.058;2023-04-12T10:50:27;10.30;99.90
14786;DHT22;7484;49.906;9.058;2023-04-12T10:53:22;10.30;99.90
14786;DHT22;7484;49.906;9.058;2023-04-12T10:55:50;10.30;99.90
14786;DHT22;7484;49.906;9.058;2023-04-12T10:58:56;10.40;99.90
14786;DHT22;7484;49.906;9.058;2023-04-12T11:01:25;10.50;99.90
14786;DHT22;7484;49.906;9.058;2023-04-12T11:04:22;10.50;99.90
14786;DHT22;7484;49.906;9.058;2023-04-12T11:07:16;10.50;99.90
14786;DHT22;7484;49.906;9.058;2023-04-12T11:10:00;10.60;99.90
14786;DHT22;7484;49.906;9.058;2023-04-12T11:12:31;10.70;99.90
14786;DHT22;7484;49.906;9.058;2023-04-12T11:15:00;10.80;99.90
14786;DHT22;7484;49.906;9.058;2023-04-12T11:17:37;10.90;99.90
14786;DHT22;7484;49.906;9.058;2023-04-12T11:20:09;11.00;99.90
14786;DHT22;7484;49.906;9.058;2023-04-12T11:22:37;11.20;99.90
14786;DHT22;7484;49.906;9.058;2023-04-12T11:25:07;11.20;99.90
14786;DHT22;7484;49.906;9.058;2023-04-12T11:27:34;11.30;99.90
14786;DHT22;7484;49.906;9.058;2023-04-12T11:30:02;11.30;99.90
14786;DHT22;7484;49.906;9.058;2023-04-12T11:32:33;11.40;99.90
14786;DHT22;7484;49.906;9.058;2023-04-12T11:35:01;11.50;99.90
14786;DHT22;7484;49.906;9.058;2023-04-12T11:37:31;11.60;99.90
14786;DHT22;7484;49.906;9.058;2023-04-12T11:39:58;11.70;99.90
14786;DHT22;7484;49.906;9.058;2023-04-12T11:42:26;11.70;99.90
14786;DHT22;7484;49.906;9.058;2023-04-12T11:44:54;11.60;99.90
14786;DHT22;7484;49.906;9.058;2023-04-12T11:47:22;11.60;99.90
14786;DHT22;7484;49.906;9.058;2023-04-12T11:49:51;11.50;99.90
14786;DHT22;7484;49.906;9.058;2023-04-12T11:52:20;11.30;99.90
14786;DHT22;7484;49.906;9.058;2023-04-12T11:54:49;11.30;99.90
14786;DHT22;7484;49.906;9.058;2023-04-12T11:57:17;11.40;99.90
14786;DHT22;7484;49.906;9.058;2023-04-12T11:59:45;11.50;99.90
14786;DHT22;7484;49.906;9.058;2023-04-12T12:02:12;11.50;99.90
14786;DHT22;7484;49.906;9.058;2023-04-12T12:04:43;11.60;99.90
14786;DHT22;7484;49.906;9.058;2023-04-12T12:07:11;11.70;99.90
14786;DHT22;7484;49.906;9.058;2023-04-12T12:09:39;11.80;99.90
14786;DHT22;7484;49.906;9.058;2023-04-12T12:12:06;11.80;99.90
14786;DHT22;7484;49.906;9.058;2023-04-12T12:14:34;11.90;99.90
14786;DHT22;7484;49.906;9.058;2023-04-12T12:17:01;12.10;99.90
14786;DHT22;7484;49.906;9.058;2023-04-12T12:19:29;12.40;99.90
14786;DHT22;7484;49.906;9.058;2023-04-12T12:22:13;12.60;99.90
14786;DHT22;7484;49.906;9.058;2023-04-12T12:24:50;12.70;99.90
14786;DHT22;7484;49.906;9.058;2023-04-12T12:27:18;12.80;99.90
14786;DHT22;7484;49.906;9.058;2023-04-12T12:29:48;13.10;99.90
14786;DHT22;7484;49.906;9.058;2023-04-12T12:32:16;13.30;99.90
14786;DHT22;7484;49.906;9.058;2023-04-12T12:34:49;13.20;99.90
14786;DHT22;7484;49.906;9.058;2023-04-12T12:37:19;13.20;99.90
14786;DHT22;7484;49.906;9.058;2023-04-12T12:40:01;13.30;99.90
14786;DHT22;7484;49.906;9.058;2023-04-12T12:42:32;13.40;99.90
14786;DHT22;7484;49.906;9.058;2023-04-12T12:45:00;13.50;99.90
14786;DHT22;7484;49.906;9.058;2023-04-12T12:47:28;13.80;99.90
14786;DHT22;7484;49.906;9.058;2023-04-12T12:49:55;13.70;99.90
14786;DHT22;7484;49.906;9.058;2023-04-12T12:52:22;13.50;99.90
14786;DHT22;7484;49.906;9.058;2023-04-12T12:54:49;13.30;99.90
14786;DHT22;7484;49.906;9.058;2023-04-12T12:57:17;13.30;99.90
14786;DHT22;7484;49.906;9.058;2023-04-12T12:59:44;13.30;99.90
14786;DHT22;7484;49.906;9.058;2023-04-12T13:02:10;13.30;99.90
14786;DHT22;7484;49.906;9.058;2023-04-12T13:04:39;13.40;99.90
14786;DHT22;7484;49.906;9.058;2023-04-12T13:07:06;13.40;99.90
14786;DHT22;7484;49.906;9.058;2023-04-12T13:09:33;13.60;99.90
14786;DHT22;7484;49.906;9.058;2023-04-12T13:11:59;13.80;99.90
14786;DHT22;7484;49.906;9.058;2023-04-12T13:14:28;13.60;99.90
14786;DHT22;7484;49.906;9.058;2023-04-12T13:16:55;13.40;99.90
14786;DHT22;7484;49.906;9.058;2023-04-12T13:19:22;13.40;99.90
14786;DHT22;7484;49.906;9.058;2023-04-12T13:21:49;13.40;99.90
14786;DHT22;7484;49.906;9.058;2023-04-12T13:24:15;13.50;99.90
14786;DHT22;7484;49.906;9.058;2023-04-12T13:26:42;13.60;99.90
14786;DHT22;7484;49.906;9.058;2023-04-12T13:29:09;13.70;99.90
14786;DHT22;7484;49.906;9.058;2023-04-12T13:31:37;13.70;99.90
14786;DHT22;7484;49.906;9.058;2023-04-12T13:34:03;13.70;99.90
14786;DHT22;7484;49.906;9.058;2023-04-12T13:36:30;13.80;99.90
14786;DHT22;7484;49.906;9.058;2023-04-12T13:38:57;13.60;99.90
14786;DHT22;7484;49.906;9.058;2023-04-12T13:41:24;13.60;99.90
14786;DHT22;7484;49.906;9.058;2023-04-12T13:43:51;13.60;99.90
14786;DHT22;7484;49.906;9.058;2023-04-12T13:46:18;13.80;99.90
14786;DHT22;7484;49.906;9.058;2023-04-12T13:48:46;13.70;99.90
14786;DHT22;7484;49.906;9.058;2023-04-12T13:51:12;13.60;99.90
14786;DHT22;7484;49.906;9.058;2023-04-12T13:53:39;13.40;99.90
14786;DHT22;7484;49.906;9.058;2023-04-12T13:56:07;13.40;99.90
14786;DHT22;7484;49.906;9.058;2023-04-12T13:58:33;13.40;99.90
14786;DHT22;7484;49.906;9.058;2023-04-12T14:01:00;13.30;99.90
14786;DHT22;7484;49.906;9.058;2023-04-12T14:03:27;13.10;99.90
14786;DHT22;7484;49.906;9.058;2023-04-12T14:05:55;13.10;99.90
14786;DHT22;7484;49.906;9.058;2023-04-12T14:08:22;12.90;99.90
14786;DHT22;7484;49.906;9.058;2023-04-12T14:10:49;13.00;99.90
14786;DHT22;7484;49.906;9.058;2023-04-12T14:13:15;12.80;99.90
14786;DHT22;7484;49.906;9.058;2023-04-12T14:15:42;12.80;99.90
14786;DHT22;7484;49.906;9.058;2023-04-12T14:18:09;12.80;99.90
14786;DHT22;7484;49.906;9.058;2023-04-12T14:20:35;12.90;99.90
14786;DHT22;7484;49.906;9.058;2023-04-12T14:23:03;13.00;99.90
14786;DHT22;7484;49.906;9.058;2023-04-12T14:25:30;13.00;99.90
14786;DHT22;7484;49.906;9.058;2023-04-12T14:27:59;13.00;99.90
14786;DHT22;7484;49.906;9.058;2023-04-12T14:30:25;13.00;99.90
14786;DHT22;7484;49.906;9.058;2023-04-12T14:32:52;13.00;99.90
14786;DHT22;7484;49.906;9.058;2023-04-12T14:35:19;12.90;99.90
14786;DHT22;7484;49.906;9.058;2023-04-12T14:37:45;12.80;99.90
14786;DHT22;7484;49.906;9.058;2023-04-12T14:40:14;12.90;99.90
14786;DHT22;7484;49.906;9.058;2023-04-12T14:42:42;12.80;99.90
14786;DHT22;7484;49.906;9.058;2023-04-12T14:45:10;12.70;99.90
14786;DHT22;7484;49.906;9.058;2023-04-12T14:47:37;12.50;99.90
14786;DHT22;7484;49.906;9.058;2023-04-12T14:50:04;12.30;99.90
14786;DHT22;7484;49.906;9.058;2023-04-12T14:52:31;12.40;99.90
14786;DHT22;7484;49.906;9.058;2023-04-12T14:54:57;12.40;99.90
14786;DHT22;7484;49.906;9.058;2023-04-12T14:57:27;12.30;99.90
14786;DHT22;7484;49.906;9.058;2023-04-12T14:59:53;12.30;99.90
14786;DHT22;7484;49.906;9.058;2023-04-12T15:02:21;12.40;99.90
14786;DHT22;7484;49.906;9.058;2023-04-12T15:04:48;12.50;99.90
14786;DHT22;7484;49.906;9.058;2023-04-12T15:07:14;12.50;99.90
14786;DHT22;7484;49.906;9.058;2023-04-12T15:09:41;12.60;99.90
14786;DHT22;7484;49.906;9.058;2023-04-12T15:12:08;12.70;99.90
14786;DHT22;7484;49.906;9.058;2023-04-12T15:14:36;12.70;99.90
14786;DHT22;7484;49.906;9.058;2023-04-12T15:17:03;12.60;99.90
14786;DHT22;7484;49.906;9.058;2023-04-12T15:19:30;12.60;99.90
14786;DHT22;7484;49.906;9.058;2023-04-12T15:21:57;12.50;99.90
14786;DHT22;7484;49.906;9.058;2023-04-12T15:24:25;12.50;99.90
14786;DHT22;7484;49.906;9.058;2023-04-12T15:26:52;12.50;99.90
14786;DHT22;7484;49.906;9.058;2023-04-12T15:29:19;12.50;99.90
14786;DHT22;7484;49.906;9.058;2023-04-12T15:31:47;12.40;99.90
14786;DHT22;7484;49.906;9.058;2023-04-12T15:34:14;12.40;99.90
14786;DHT22;7484;49.906;9.058;2023-04-12T15:36:42;12.50;99.90
14786;DHT22;7484;49.906;9.058;2023-04-12T15:39:10;12.60;99.90
14786;DHT22;7484;49.906;9.058;2023-04-12T15:41:38;12.70;99.90
14786;DHT22;7484;49.906;9.058;2023-04-12T15:44:08;12.80;99.90
14786;DHT22;7484;49.906;9.058;2023-04-12T15:46:36;12.70;99.90
14786;DHT22;7484;49.906;9.058;2023-04-12T15:49:04;12.50;99.90
14786;DHT22;7484;49.906;9.058;2023-04-12T15:51:31;12.60;99.90
14786;DHT22;7484;49.906;9.058;2023-04-12T15:53:58;13.00;99.90
14786;DHT22;7484;49.906;9.058;2023-04-12T15:56:24;13.50;99.90
14786;DHT22;7484;49.906;9.058;2023-04-12T15:58:51;14.20;99.90
14786;DHT22;7484;49.906;9.058;2023-04-12T16:01:19;14.50;99.90
14786;DHT22;7484;49.906;9.058;2023-04-12T16:03:46;14.60;99.90
14786;DHT22;7484;49.906;9.058;2023-04-12T16:06:16;14.90;99.90